Bao An Cheng 69 — BVBD5 — position and weather

sailwx.info

Track history (hours):
 
Tides and Currents Weather Stations Pressure Air Temp Water Temp Dewpoint Dewpoint Depression Visibility Wind Speed Wind Dir Waves Ship Positions

Bao An Cheng 69

Last reported at 2014-Aug-27 04:22 UTC. Time now 2014-Aug-27 19:18 UTC.
Position N 20°02' E 110°17'.

Length 121 m; draft 6.4 m.

MMSI: 412703090.

Date/timePositionNaut miles runAvg speedWind from/ knotsBaromVisibWave heightAir tempDewpointWater temp
2014-Aug-27 04:22N 20°02' E 110°17'0 0.1
2014-Aug-27 03:31N 20°02' E 110°17'0 0.0
2014-Aug-27 01:33N 20°02' E 110°17'0 0.0
2014-Aug-26 22:16N 20°02' E 110°17'0 0.0
2014-Aug-26 14:07N 20°02' E 110°16'3 5.2
2014-Aug-26 13:33N 20°05' E 110°16'0 0.2
2014-Aug-26 11:27N 20°05' E 110°16'0 0.0
2014-Aug-26 10:27N 20°05' E 110°16'0 0.1
2014-Aug-26 09:09N 20°05' E 110°16'0 0.1
2014-Aug-26 08:03N 20°05' E 110°16'0 0.0
2014-Aug-26 07:21N 20°05' E 110°16'0 0.0
2014-Aug-26 06:15N 20°05' E 110°16'0 0.0
2014-Aug-26 05:22N 20°05' E 110°16'0 0.0
2014-Aug-26 04:27N 20°05' E 110°16'0 0.0
2014-Aug-26 03:21N 20°05' E 110°16'0 0.0
2014-Aug-26 01:33N 20°05' E 110°16'0 0.0
2014-Aug-26 00:03N 20°05' E 110°16'0 0.0
2014-Aug-25 23:21N 20°05' E 110°16'0 0.0
2014-Aug-25 22:15N 20°05' E 110°16'0 0.0
2014-Aug-25 21:33N 20°05' E 110°16'0 0.0
2014-Aug-25 19:30N 20°05' E 110°16'0 0.0
2014-Aug-25 18:24N 20°05' E 110°16'0 0.0
2014-Aug-25 16:24N 20°05' E 110°16'0 0.0
2014-Aug-25 13:18N 20°05' E 110°16'0 0.1
2014-Aug-25 12:30N 20°05' E 110°16'0 0.1
2014-Aug-25 11:30N 20°05' E 110°16'0 0.0
2014-Aug-25 10:18N 20°05' E 110°16'0 0.0
2014-Aug-25 09:30N 20°05' E 110°16'0 0.1
2014-Aug-25 08:30N 20°05' E 110°16'0 0.1
2014-Aug-25 07:12N 20°05' E 110°16'0 0.0
2014-Aug-25 05:30N 20°05' E 110°16'0 0.0
2014-Aug-25 04:30N 20°05' E 110°16'0 0.0
2014-Aug-25 03:24N 20°05' E 110°16'175 3.4
2014-Aug-22 23:31N 21°32' E 112°59'13 9.2
2014-Aug-22 22:05N 21°39' E 113°10'6 9.7
2014-Aug-22 21:31N 21°42' E 113°15'2010.1
2014-Aug-22 19:33N 21°54' E 113°33'9 9.2
2014-Aug-22 18:33N 21°59' E 113°41'10 9.4
2014-Aug-22 17:32N 22°03' E 113°50'9 9.4
2014-Aug-22 16:33N 22°12' E 113°49'8 7.6
2014-Aug-22 15:33N 22°20' E 113°49'7 7.0
2014-Aug-22 14:34N 22°26' E 113°52'2 2.4
2014-Aug-22 13:33N 22°28' E 113°54'0 0.0
2014-Aug-22 12:32N 22°28' E 113°54'0 0.0
2014-Aug-22 11:29N 22°28' E 113°54'0 0.0
2014-Aug-22 10:23N 22°28' E 113°54'0 0.0
2014-Aug-22 09:26N 22°28' E 113°54'0 0.0
2014-Aug-22 08:29N 22°28' E 113°54'0 0.0
2014-Aug-22 07:23N 22°28' E 113°54'0 0.0
2014-Aug-22 06:29N 22°28' E 113°54'0 0.0
2014-Aug-22 05:32N 22°28' E 113°54'0 0.0
2014-Aug-22 04:32N 22°28' E 113°54'0 0.1
2014-Aug-22 03:33N 22°28' E 113°54'5 5.4
2014-Aug-22 02:33N 22°24' E 113°50'8 7.7
2014-Aug-22 01:33N 22°16' E 113°48'8 8.3
2014-Aug-22 00:33N 22°09' E 113°53'157 8.7
2014-Aug-21 06:29N 22°54' E 116°35'10 9.5
2014-Aug-21 05:24N 22°59' E 116°45'8 9.7
2014-Aug-21 04:33N 23°03' E 116°53'94 8.6
2014-Aug-20 17:33N 24°03' E 118°12'9 9.1
2014-Aug-20 16:33N 24°09' E 118°20'13 9.2
2014-Aug-20 15:11N 24°18' E 118°30'24 8.5
2014-Aug-20 12:20N 24°34' E 118°50'6 7.9
2014-Aug-20 11:33N 24°38' E 118°55'8 7.6
2014-Aug-20 10:33N 24°43' E 119°01'14 6.8
2014-Aug-20 08:30N 24°54' E 119°11'340 8.3
2014-Aug-18 15:33N 29°44' E 122°31'1110.9
2014-Aug-18 14:32N 29°54' E 122°35'1110.7
2014-Aug-18 13:29N 30°05' E 122°36'1010.9
2014-Aug-18 12:33N 30°15' E 122°36'1111.0
2014-Aug-18 11:33N 30°26' E 122°33'10 9.9
2014-Aug-18 10:33N 30°34' E 122°26'9 8.7
2014-Aug-18 09:33N 30°41' E 122°20'9 8.7
2014-Aug-18 08:31N 30°49' E 122°17'9 8.6
2014-Aug-18 07:31N 30°58' E 122°13'21 7.1
2014-Aug-18 04:32N 31°09' E 121°53'8 8.6
2014-Aug-18 03:32N 31°15' E 121°46'9 8.7
2014-Aug-18 02:30N 31°21' E 121°38'7 7.5
2014-Aug-18 01:33N 31°23' E 121°30'2 1.7
2014-Aug-18 00:33N 31°21' E 121°30'0 0.0
2014-Aug-17 17:33N 31°21' E 121°30'0 0.0
2014-Aug-17 16:27N 31°21' E 121°30'0 0.0
2014-Aug-17 14:27N 31°21' E 121°30'0 0.0
2014-Aug-17 12:32N 31°21' E 121°30'3 3.1
2014-Aug-17 11:32N 31°24' E 121°33'7 7.1
2014-Aug-17 10:33N 31°21' E 121°40'8 8.3
2014-Aug-17 09:32N 31°15' E 121°47'27 8.9
2014-Aug-17 06:31N 31°00' E 122°13'9 9.0
2014-Aug-17 05:33N 30°52' E 122°17'7 6.3
2014-Aug-17 04:27N 30°46' E 122°21'  
Track history (hours):
 
Tides and Currents Weather Stations Pressure Air Temp Water Temp Dewpoint Dewpoint Depression Visibility Wind Speed Wind Dir Waves Ship Positions

Bao An Cheng 69

Last reported at 2014-Aug-27 04:22 UTC. Time now 2014-Aug-27 19:18 UTC.
Position N 20°02' E 110°17'.

Length 121 m; draft 6.4 m.

MMSI: 412703090.

Date/timePositionNaut miles runAvg speedWind from/ knotsBaromVisibWave heightAir tempDewpointWater temp
2014-Aug-27 04:22N 20°02' E 110°17'0 0.1
2014-Aug-27 03:31N 20°02' E 110°17'0 0.0
2014-Aug-27 01:33N 20°02' E 110°17'0 0.0
2014-Aug-26 22:16N 20°02' E 110°17'0 0.0
2014-Aug-26 14:07N 20°02' E 110°16'3 5.2
2014-Aug-26 13:33N 20°05' E 110°16'0 0.2
2014-Aug-26 11:27N 20°05' E 110°16'0 0.0
2014-Aug-26 10:27N 20°05' E 110°16'0 0.1
2014-Aug-26 09:09N 20°05' E 110°16'0 0.1
2014-Aug-26 08:03N 20°05' E 110°16'0 0.0
2014-Aug-26 07:21N 20°05' E 110°16'0 0.0
2014-Aug-26 06:15N 20°05' E 110°16'0 0.0
2014-Aug-26 05:22N 20°05' E 110°16'0 0.0
2014-Aug-26 04:27N 20°05' E 110°16'0 0.0
2014-Aug-26 03:21N 20°05' E 110°16'0 0.0
2014-Aug-26 01:33N 20°05' E 110°16'0 0.0
2014-Aug-26 00:03N 20°05' E 110°16'0 0.0
2014-Aug-25 23:21N 20°05' E 110°16'0 0.0
2014-Aug-25 22:15N 20°05' E 110°16'0 0.0
2014-Aug-25 21:33N 20°05' E 110°16'0 0.0
2014-Aug-25 19:30N 20°05' E 110°16'0 0.0
2014-Aug-25 18:24N 20°05' E 110°16'0 0.0
2014-Aug-25 16:24N 20°05' E 110°16'0 0.0
2014-Aug-25 13:18N 20°05' E 110°16'0 0.1
2014-Aug-25 12:30N 20°05' E 110°16'0 0.1
2014-Aug-25 11:30N 20°05' E 110°16'0 0.0
2014-Aug-25 10:18N 20°05' E 110°16'0 0.0
2014-Aug-25 09:30N 20°05' E 110°16'0 0.1
2014-Aug-25 08:30N 20°05' E 110°16'0 0.1
2014-Aug-25 07:12N 20°05' E 110°16'0 0.0
2014-Aug-25 05:30N 20°05' E 110°16'0 0.0
2014-Aug-25 04:30N 20°05' E 110°16'0 0.0
2014-Aug-25 03:24N 20°05' E 110°16'175 3.4
2014-Aug-22 23:31N 21°32' E 112°59'13 9.2
2014-Aug-22 22:05N 21°39' E 113°10'6 9.7
2014-Aug-22 21:31N 21°42' E 113°15'2010.1
2014-Aug-22 19:33N 21°54' E 113°33'9 9.2
2014-Aug-22 18:33N 21°59' E 113°41'10 9.4
2014-Aug-22 17:32N 22°03' E 113°50'9 9.4
2014-Aug-22 16:33N 22°12' E 113°49'8 7.6
2014-Aug-22 15:33N 22°20' E 113°49'7 7.0
2014-Aug-22 14:34N 22°26' E 113°52'2 2.4
2014-Aug-22 13:33N 22°28' E 113°54'0 0.0
2014-Aug-22 12:32N 22°28' E 113°54'0 0.0
2014-Aug-22 11:29N 22°28' E 113°54'0 0.0
2014-Aug-22 10:23N 22°28' E 113°54'0 0.0
2014-Aug-22 09:26N 22°28' E 113°54'0 0.0
2014-Aug-22 08:29N 22°28' E 113°54'0 0.0
2014-Aug-22 07:23N 22°28' E 113°54'0 0.0
2014-Aug-22 06:29N 22°28' E 113°54'0 0.0
2014-Aug-22 05:32N 22°28' E 113°54'0 0.0
2014-Aug-22 04:32N 22°28' E 113°54'0 0.1
2014-Aug-22 03:33N 22°28' E 113°54'5 5.4
2014-Aug-22 02:33N 22°24' E 113°50'8 7.7
2014-Aug-22 01:33N 22°16' E 113°48'8 8.3
2014-Aug-22 00:33N 22°09' E 113°53'157 8.7
2014-Aug-21 06:29N 22°54' E 116°35'10 9.5
2014-Aug-21 05:24N 22°59' E 116°45'8 9.7
2014-Aug-21 04:33N 23°03' E 116°53'94 8.6
2014-Aug-20 17:33N 24°03' E 118°12'9 9.1
2014-Aug-20 16:33N 24°09' E 118°20'13 9.2
2014-Aug-20 15:11N 24°18' E 118°30'24 8.5
2014-Aug-20 12:20N 24°34' E 118°50'6 7.9
2014-Aug-20 11:33N 24°38' E 118°55'8 7.6
2014-Aug-20 10:33N 24°43' E 119°01'14 6.8
2014-Aug-20 08:30N 24°54' E 119°11'340 8.3
2014-Aug-18 15:33N 29°44' E 122°31'1110.9
2014-Aug-18 14:32N 29°54' E 122°35'1110.7
2014-Aug-18 13:29N 30°05' E 122°36'1010.9
2014-Aug-18 12:33N 30°15' E 122°36'1111.0
2014-Aug-18 11:33N 30°26' E 122°33'10 9.9
2014-Aug-18 10:33N 30°34' E 122°26'9 8.7
2014-Aug-18 09:33N 30°41' E 122°20'9 8.7
2014-Aug-18 08:31N 30°49' E 122°17'9 8.6
2014-Aug-18 07:31N 30°58' E 122°13'21 7.1
2014-Aug-18 04:32N 31°09' E 121°53'8 8.6
2014-Aug-18 03:32N 31°15' E 121°46'9 8.7
2014-Aug-18 02:30N 31°21' E 121°38'7 7.5
2014-Aug-18 01:33N 31°23' E 121°30'2 1.7
2014-Aug-18 00:33N 31°21' E 121°30'0 0.0
2014-Aug-17 17:33N 31°21' E 121°30'0 0.0
2014-Aug-17 16:27N 31°21' E 121°30'0 0.0
2014-Aug-17 14:27N 31°21' E 121°30'0 0.0
2014-Aug-17 12:32N 31°21' E 121°30'3 3.1
2014-Aug-17 11:32N 31°24' E 121°33'7 7.1
2014-Aug-17 10:33N 31°21' E 121°40'8 8.3
2014-Aug-17 09:32N 31°15' E 121°47'27 8.9
2014-Aug-17 06:31N 31°00' E 122°13'9 9.0
2014-Aug-17 05:33N 30°52' E 122°17'7 6.3
2014-Aug-17 04:27N 30°46' E 122°21'  

Dump ship's entire track history